createdAt,value
2023-05-01T00:25:01.325Z,1.3
2023-05-01T00:30:01.097Z,1.9
2023-05-01T00:35:01.235Z,1.9
2023-05-01T00:45:01.402Z,1.9
2023-05-01T00:50:01.216Z,0.9
2023-05-01T00:55:01.320Z,0.3
2023-05-01T01:20:01.564Z,0.2
2023-05-01T01:40:01.371Z,0.1
2023-05-01T06:00:06.718Z,6.0
2023-05-01T06:05:01.914Z,7.4
2023-05-01T06:10:01.752Z,9.8
2023-05-01T06:15:01.776Z,7.5
2023-05-01T06:20:01.714Z,5.6
2023-05-01T06:25:01.840Z,4.5
2023-05-01T06:30:01.775Z,6.8
2023-05-01T06:35:06.825Z,6.2
2023-05-01T06:40:02.758Z,7.6
2023-05-01T06:45:01.757Z,7.8
2023-05-01T06:50:06.915Z,9.5
2023-05-01T06:55:01.748Z,6.4
2023-05-01T07:00:01.549Z,5.3
2023-05-01T07:05:01.756Z,4.1
2023-05-01T07:10:01.793Z,3.8
2023-05-01T07:15:01.804Z,1.8
2023-05-01T07:20:01.602Z,2.7
2023-05-01T07:40:01.657Z,12.2
2023-05-01T07:50:01.654Z,17.0
2023-05-01T08:00:01.512Z,21.3
2023-05-01T08:05:01.924Z,27.2
2023-05-01T08:10:02.865Z,32.1
2023-05-01T08:25:02.679Z,37.7
2023-05-01T08:35:01.749Z,42.6
2023-05-01T08:50:01.674Z,41.8
2023-05-01T09:00:01.714Z,45.2
2023-05-01T09:05:01.860Z,45.5
2023-05-01T09:10:01.634Z,43.7
2023-05-01T09:15:01.652Z,48.5
2023-05-01T09:20:01.544Z,45.7
2023-05-01T09:25:01.720Z,47.2
2023-05-01T09:35:02.692Z,57.2
2023-05-01T09:55:07.607Z,66.8
2023-05-01T10:00:01.278Z,69.7
2023-05-01T10:05:01.418Z,67.8
2023-05-01T10:10:03.181Z,66.7
2023-05-01T10:25:01.919Z,75.6
2023-05-01T10:30:01.645Z,78.7
2023-05-01T10:35:01.718Z,78.7
2023-05-01T10:40:06.759Z,79.8
2023-05-01T10:55:01.314Z,82.0
2023-05-01T11:15:01.748Z,79.4
2023-05-01T11:20:01.463Z,75.8
2023-05-01T11:25:01.522Z,77.9
2023-05-01T11:30:06.459Z,77.3
2023-05-01T11:35:01.568Z,76.9
2023-05-01T11:40:01.648Z,76.1
2023-05-01T11:50:01.499Z,75.0
2023-05-01T11:55:03.054Z,75.3
2023-05-01T12:00:01.588Z,74.8
2023-05-01T12:10:01.785Z,77.2
2023-05-01T12:15:01.541Z,80.1
2023-05-01T12:30:01.480Z,80.0
2023-05-01T12:35:02.283Z,78.5
2023-05-01T12:55:02.734Z,74.2
2023-05-01T13:00:01.750Z,82.2
2023-05-01T13:05:01.511Z,85.8
2023-05-01T13:10:02.575Z,84.9
2023-05-01T13:20:02.684Z,89.2
2023-05-01T13:30:02.252Z,95.4
2023-05-01T13:35:01.440Z,105.8
2023-05-01T13:40:01.848Z,114.8
2023-05-01T13:50:02.158Z,127.3
2023-05-01T13:55:06.364Z,131.8
2023-05-01T14:00:01.482Z,127.5
2023-05-01T14:10:06.520Z,120.0
2023-05-01T14:15:03.209Z,112.2
2023-05-01T14:20:01.331Z,105.6
2023-05-01T14:25:02.175Z,101.0
2023-05-01T14:30:01.371Z,90.0
2023-05-01T14:35:01.568Z,84.2
2023-05-01T14:40:01.473Z,79.2
2023-05-01T14:45:01.690Z,73.1
2023-05-01T14:50:01.860Z,68.2
2023-05-01T14:55:01.897Z,67.0
2023-05-01T15:00:01.923Z,65.7
2023-05-01T15:05:01.671Z,68.0
2023-05-01T15:10:01.589Z,66.7
2023-05-01T15:15:01.630Z,68.2
2023-05-01T15:20:01.635Z,73.2
2023-05-01T15:25:01.983Z,74.0
2023-05-01T15:35:02.562Z,79.8
2023-05-01T15:40:06.615Z,79.8
2023-05-01T15:45:01.966Z,78.4
2023-05-01T15:50:02.605Z,86.1
2023-05-01T15:55:01.591Z,94.9
2023-05-01T16:00:02.609Z,93.8
2023-05-01T16:05:01.383Z,106.8
2023-05-01T16:10:07.088Z,110.5
2023-05-01T16:20:03.778Z,96.0
2023-05-01T16:25:01.488Z,101.9
2023-05-01T16:35:01.605Z,116.2
2023-05-01T16:40:07.662Z,128.5
2023-05-01T16:45:01.509Z,142.6
2023-05-01T16:50:02.636Z,147.8
2023-05-01T17:05:01.536Z,123.8
2023-05-01T17:10:06.941Z,107.4
2023-05-01T17:15:06.817Z,95.6
2023-05-01T17:20:02.851Z,84.2
2023-05-01T17:30:02.826Z,66.8
2023-05-01T17:35:07.005Z,65.3
2023-05-01T17:40:03.154Z,60.7
2023-05-01T17:55:01.643Z,57.6
2023-05-01T18:05:02.479Z,57.4
2023-05-01T18:10:02.636Z,55.8
2023-05-01T18:15:01.491Z,56.0
2023-05-01T18:20:02.656Z,54.8
2023-05-01T18:25:01.466Z,52.8
2023-05-01T18:30:03.247Z,50.0
2023-05-01T18:40:02.085Z,45.8
2023-05-01T18:50:02.382Z,45.2
2023-05-01T19:10:03.550Z,44.5
2023-05-01T19:15:01.377Z,44.3
2023-05-01T19:20:02.277Z,43.8
2023-05-01T19:25:01.478Z,44.6
2023-05-01T19:30:03.093Z,45.8
2023-05-01T19:35:02.138Z,46.2
2023-05-01T19:50:02.762Z,42.9
2023-05-01T20:00:02.589Z,42.3
2023-05-01T20:05:01.517Z,42.4
2023-05-01T20:20:01.838Z,47.1
2023-05-01T20:25:01.569Z,47.3
2023-05-01T20:40:06.838Z,51.2
2023-05-01T20:50:02.016Z,53.6
2023-05-01T20:55:01.403Z,53.6
2023-05-01T21:05:06.539Z,52.8
2023-05-01T21:10:01.892Z,54.0
2023-05-01T21:25:01.568Z,54.2
2023-05-01T21:35:06.646Z,58.5
2023-05-01T21:40:02.370Z,59.6
2023-05-01T21:45:01.553Z,64.6
2023-05-01T21:50:02.180Z,62.7
2023-05-01T21:55:01.555Z,58.8
2023-05-01T22:00:02.264Z,53.6
2023-05-01T22:05:01.457Z,52.1
2023-05-01T22:10:02.353Z,47.2
2023-05-01T22:20:02.412Z,45.8
2023-05-01T22:25:01.540Z,47.2
2023-05-01T22:35:01.503Z,46.3
2023-05-01T22:40:02.390Z,47.0
2023-05-01T22:50:02.855Z,50.3
2023-05-01T22:55:01.639Z,54.5
2023-05-01T23:05:01.500Z,66.8
2023-05-01T23:10:02.362Z,68.7
2023-05-01T23:15:01.644Z,67.7
2023-05-01T23:20:02.591Z,64.4
2023-05-01T23:25:02.515Z,56.6
2023-05-01T23:35:01.592Z,60.7
2023-05-01T23:45:01.463Z,68.1
2023-05-01T23:50:02.555Z,73.4
2023-05-01T23:55:01.531Z,75.4
